Current Conditions
Gedeeltelijk Bewolkt




Pressure
1011.92 (mb) - 29.88 (inHG)
Visibility

10.0 (km) - 6.2 (miles)
   Temperature
15  °C
59°F
12  °C
Dewpoint
82  %
 Humidity
   Wind Speed
27  km/h
15  kts
17  mph
7.6  m/s
   Wind Direction
 210°
South South
West
   Airport Data
EHAM
Location Amsterdam Schiphol 80 km (49.72 mi)
Metar :EHAM 040425Z 21015KT 180V250 9999 FEW007 BKN017 15/12 Q1012 TEMPO 7000 BKN014
Sat 4th July 05:25 am
   Raw Metar Info
Raw METAR is the most common format in the world for the transmission of observational weather data. It is highly standardized through the International Civil Aviation Organization (ICAO), which allows it to be understood throughout most of the world.
   API Info
Data Provided by
https://www.checkwx.com/weather/EHAM
   © Info
CSS/SVG/PHP scripts were developed by weather34.com for use in the weather34 template © 2015-2020

Guide Info provided by Metar-Wikipedia